sensor_id;sensor_type;location;lat;lon;timestamp;pressure;altitude;pressure_sealevel;temperature;humidity
1616;BME280;801;47.982;7.810;2022-10-22T02:30:54;98490.84;;;14.07;100.00
1616;BME280;801;47.982;7.810;2022-10-22T02:33:25;98504.88;;;14.09;100.00
1616;BME280;801;47.982;7.810;2022-10-22T02:35:54;98503.59;;;14.01;100.00
1616;BME280;801;47.982;7.810;2022-10-22T02:38:22;98503.25;;;14.08;100.00
1616;BME280;801;47.982;7.810;2022-10-22T02:40:49;98503.84;;;14.05;100.00
1616;BME280;801;47.982;7.810;2022-10-22T02:43:16;98504.38;;;13.78;100.00
1616;BME280;801;47.982;7.810;2022-10-22T02:45:43;98492.72;;;13.77;100.00
1616;BME280;801;47.982;7.810;2022-10-22T02:48:12;98479.09;;;13.93;100.00
1616;BME280;801;47.982;7.810;2022-10-22T02:50:38;98478.44;;;14.06;100.00
1616;BME280;801;47.982;7.810;2022-10-22T02:53:05;98470.16;;;14.21;100.00
1616;BME280;801;47.982;7.810;2022-10-22T02:55:31;98469.22;;;14.31;100.00
1616;BME280;801;47.982;7.810;2022-10-22T02:57:58;98464.56;;;14.12;100.00
1616;BME280;801;47.982;7.810;2022-10-22T03:00:24;98444.25;;;14.20;100.00
1616;BME280;801;47.982;7.810;2022-10-22T03:02:51;98447.13;;;14.29;100.00
1616;BME280;801;47.982;7.810;2022-10-22T03:05:19;98450.88;;;14.04;100.00
1616;BME280;801;47.982;7.810;2022-10-22T03:07:45;98447.50;;;14.17;100.00
1616;BME280;801;47.982;7.810;2022-10-22T03:10:12;98453.72;;;14.18;100.00
1616;BME280;801;47.982;7.810;2022-10-22T03:12:38;98446.28;;;14.28;100.00
1616;BME280;801;47.982;7.810;2022-10-22T03:15:05;98438.78;;;14.25;100.00
1616;BME280;801;47.982;7.810;2022-10-22T03:17:32;98442.44;;;13.86;100.00
1616;BME280;801;47.982;7.810;2022-10-22T03:19:59;98442.31;;;13.97;100.00
1616;BME280;801;47.982;7.810;2022-10-22T03:22:28;98451.84;;;14.13;100.00
1616;BME280;801;47.982;7.810;2022-10-22T03:24:59;98451.47;;;14.01;100.00
1616;BME280;801;47.982;7.810;2022-10-22T03:27:28;98452.50;;;14.05;100.00
1616;BME280;801;47.982;7.810;2022-10-22T03:29:56;98461.16;;;14.02;100.00
1616;BME280;801;47.982;7.810;2022-10-22T03:32:23;98457.47;;;13.93;100.00
1616;BME280;801;47.982;7.810;2022-10-22T03:34:49;98461.69;;;13.75;100.00
1616;BME280;801;47.982;7.810;2022-10-22T03:37:16;98458.66;;;13.86;100.00
1616;BME280;801;47.982;7.810;2022-10-22T03:39:44;98470.72;;;13.94;100.00
1616;BME280;801;47.982;7.810;2022-10-22T03:42:11;98473.75;;;13.87;100.00
1616;BME280;801;47.982;7.810;2022-10-22T03:44:39;98469.47;;;13.81;100.00
1616;BME280;801;47.982;7.810;2022-10-22T03:47:06;98479.13;;;13.58;100.00
1616;BME280;801;47.982;7.810;2022-10-22T03:49:33;98477.09;;;13.74;100.00
1616;BME280;801;47.982;7.810;2022-10-22T03:52:04;98480.78;;;13.54;100.00
1616;BME280;801;47.982;7.810;2022-10-22T03:54:31;98470.50;;;13.56;100.00
1616;BME280;801;47.982;7.810;2022-10-22T03:56:59;98471.31;;;13.57;100.00
1616;BME280;801;47.982;7.810;2022-10-22T03:59:26;98482.19;;;13.46;100.00
1616;BME280;801;47.982;7.810;2022-10-22T04:01:52;98470.91;;;13.39;100.00
1616;BME280;801;47.982;7.810;2022-10-22T04:04:19;98473.47;;;13.55;100.00
1616;BME280;801;47.982;7.810;2022-10-22T04:06:46;98482.47;;;13.45;100.00
1616;BME280;801;47.982;7.810;2022-10-22T04:09:12;98478.41;;;13.47;100.00
1616;BME280;801;47.982;7.810;2022-10-22T04:11:39;98493.69;;;13.57;100.00
1616;BME280;801;47.982;7.810;2022-10-22T04:14:07;98491.91;;;13.47;100.00
1616;BME280;801;47.982;7.810;2022-10-22T04:16:37;98494.59;;;13.47;100.00
1616;BME280;801;47.982;7.810;2022-10-22T04:19:04;98504.59;;;13.47;100.00
1616;BME280;801;47.982;7.810;2022-10-22T04:21:31;98510.19;;;13.56;100.00
1616;BME280;801;47.982;7.810;2022-10-22T04:23:58;98513.97;;;13.60;100.00
1616;BME280;801;47.982;7.810;2022-10-22T04:26:24;98510.78;;;13.47;100.00
1616;BME280;801;47.982;7.810;2022-10-22T04:28:51;98511.38;;;13.44;100.00
1616;BME280;801;47.982;7.810;2022-10-22T04:31:22;98516.16;;;13.53;100.00
1616;BME280;801;47.982;7.810;2022-10-22T04:33:51;98509.09;;;13.57;100.00
1616;BME280;801;47.982;7.810;2022-10-22T04:36:18;98515.41;;;13.47;100.00
1616;BME280;801;47.982;7.810;2022-10-22T04:38:46;98511.84;;;13.52;100.00
1616;BME280;801;47.982;7.810;2022-10-22T04:41:18;98518.78;;;13.63;100.00
1616;BME280;801;47.982;7.810;2022-10-22T04:43:45;98515.50;;;13.66;100.00
1616;BME280;801;47.982;7.810;2022-10-22T04:46:14;98520.69;;;13.57;100.00
1616;BME280;801;47.982;7.810;2022-10-22T04:48:43;98519.91;;;13.57;100.00
1616;BME280;801;47.982;7.810;2022-10-22T04:51:11;98526.69;;;13.54;100.00
1616;BME280;801;47.982;7.810;2022-10-22T04:53:38;98520.16;;;13.60;100.00
1616;BME280;801;47.982;7.810;2022-10-22T04:56:07;98515.56;;;13.61;100.00
1616;BME280;801;47.982;7.810;2022-10-22T04:58:33;98510.78;;;13.47;100.00
1616;BME280;801;47.982;7.810;2022-10-22T05:01:00;98505.34;;;13.58;100.00
1616;BME280;801;47.982;7.810;2022-10-22T05:03:27;98508.81;;;13.58;100.00
1616;BME280;801;47.982;7.810;2022-10-22T05:05:55;98503.75;;;13.52;100.00
1616;BME280;801;47.982;7.810;2022-10-22T05:08:21;98506.28;;;13.33;100.00
1616;BME280;801;47.982;7.810;2022-10-22T05:10:47;98503.47;;;13.53;100.00
1616;BME280;801;47.982;7.810;2022-10-22T05:13:14;98514.28;;;13.48;100.00
1616;BME280;801;47.982;7.810;2022-10-22T05:15:40;98507.50;;;13.56;100.00
1616;BME280;801;47.982;7.810;2022-10-22T05:18:07;98503.72;;;13.57;100.00
1616;BME280;801;47.982;7.810;2022-10-22T05:20:34;98509.47;;;13.45;100.00
1616;BME280;801;47.982;7.810;2022-10-22T05:23:01;98506.78;;;13.45;100.00
1616;BME280;801;47.982;7.810;2022-10-22T05:25:28;98508.66;;;13.44;100.00
1616;BME280;801;47.982;7.810;2022-10-22T05:27:55;98503.38;;;13.19;100.00
1616;BME280;801;47.982;7.810;2022-10-22T05:30:21;98509.03;;;13.22;100.00
1616;BME280;801;47.982;7.810;2022-10-22T05:32:48;98509.56;;;13.24;100.00
1616;BME280;801;47.982;7.810;2022-10-22T05:35:16;98515.28;;;13.18;100.00
1616;BME280;801;47.982;7.810;2022-10-22T05:37:42;98517.94;;;13.28;100.00
1616;BME280;801;47.982;7.810;2022-10-22T05:40:11;98525.72;;;13.35;100.00
1616;BME280;801;47.982;7.810;2022-10-22T05:42:37;98521.63;;;13.42;100.00
1616;BME280;801;47.982;7.810;2022-10-22T05:45:05;98528.78;;;13.18;100.00
1616;BME280;801;47.982;7.810;2022-10-22T05:47:32;98536.06;;;13.17;100.00
1616;BME280;801;47.982;7.810;2022-10-22T05:49:59;98533.59;;;13.31;100.00
1616;BME280;801;47.982;7.810;2022-10-22T05:52:25;98545.13;;;13.42;100.00
1616;BME280;801;47.982;7.810;2022-10-22T05:54:52;98538.34;;;13.44;100.00
1616;BME280;801;47.982;7.810;2022-10-22T05:57:20;98555.72;;;13.33;100.00
1616;BME280;801;47.982;7.810;2022-10-22T05:59:46;98555.75;;;13.18;100.00
1616;BME280;801;47.982;7.810;2022-10-22T06:02:13;98562.25;;;13.12;100.00
1616;BME280;801;47.982;7.810;2022-10-22T06:04:39;98558.75;;;13.11;100.00
1616;BME280;801;47.982;7.810;2022-10-22T06:07:10;98562.81;;;13.08;100.00
1616;BME280;801;47.982;7.810;2022-10-22T06:09:39;98561.75;;;13.04;100.00
1616;BME280;801;47.982;7.810;2022-10-22T06:12:06;98561.41;;;13.16;100.00
1616;BME280;801;47.982;7.810;2022-10-22T06:14:36;98560.88;;;13.14;100.00
1616;BME280;801;47.982;7.810;2022-10-22T06:17:03;98570.72;;;12.90;100.00
1616;BME280;801;47.982;7.810;2022-10-22T06:19:29;98577.38;;;13.07;100.00
1616;BME280;801;47.982;7.810;2022-10-22T06:21:56;98574.25;;;12.85;100.00
1616;BME280;801;47.982;7.810;2022-10-22T06:24:22;98580.97;;;12.93;100.00
1616;BME280;801;47.982;7.810;2022-10-22T06:26:49;98587.94;;;13.04;100.00
1616;BME280;801;47.982;7.810;2022-10-22T06:29:16;98582.84;;;12.97;100.00
1616;BME280;801;47.982;7.810;2022-10-22T06:31:44;98584.03;;;13.31;100.00
1616;BME280;801;47.982;7.810;2022-10-22T06:34:12;98589.91;;;13.43;100.00
1616;BME280;801;47.982;7.810;2022-10-22T06:36:39;98590.19;;;13.46;100.00
1616;BME280;801;47.982;7.810;2022-10-22T06:39:09;98600.16;;;13.46;100.00
1616;BME280;801;47.982;7.810;2022-10-22T06:41:36;98603.69;;;13.41;100.00
1616;BME280;801;47.982;7.810;2022-10-22T06:44:03;98600.22;;;13.36;100.00
1616;BME280;801;47.982;7.810;2022-10-22T06:46:30;98604.03;;;13.24;100.00
1616;BME280;801;47.982;7.810;2022-10-22T06:49:00;98601.06;;;13.31;100.00
1616;BME280;801;47.982;7.810;2022-10-22T06:51:27;98606.16;;;13.33;100.00
1616;BME280;801;47.982;7.810;2022-10-22T06:53:57;98608.38;;;13.10;100.00
1616;BME280;801;47.982;7.810;2022-10-22T06:56:25;98606.72;;;13.19;100.00
1616;BME280;801;47.982;7.810;2022-10-22T06:58:53;98616.72;;;13.29;100.00
1616;BME280;801;47.982;7.810;2022-10-22T07:01:22;98617.22;;;13.36;100.00
1616;BME280;801;47.982;7.810;2022-10-22T07:03:50;98624.97;;;13.53;100.00
1616;BME280;801;47.982;7.810;2022-10-22T07:06:19;98634.34;;;13.61;100.00
1616;BME280;801;47.982;7.810;2022-10-22T07:08:46;98627.34;;;13.60;100.00
1616;BME280;801;47.982;7.810;2022-10-22T07:11:14;98630.06;;;13.60;100.00
1616;BME280;801;47.982;7.810;2022-10-22T07:13:41;98635.47;;;13.55;100.00
1616;BME280;801;47.982;7.810;2022-10-22T07:16:09;98642.19;;;13.57;100.00
1616;BME280;801;47.982;7.810;2022-10-22T07:18:36;98642.31;;;13.42;100.00
1616;BME280;801;47.982;7.810;2022-10-22T07:21:04;98643.59;;;13.49;100.00
1616;BME280;801;47.982;7.810;2022-10-22T07:23:32;98649.59;;;13.36;100.00
1616;BME280;801;47.982;7.810;2022-10-22T07:25:59;98649.31;;;13.43;100.00
1616;BME280;801;47.982;7.810;2022-10-22T07:28:27;98653.75;;;13.73;100.00
1616;BME280;801;47.982;7.810;2022-10-22T07:30:53;98657.22;;;13.79;100.00
1616;BME280;801;47.982;7.810;2022-10-22T07:33:20;98662.97;;;13.62;100.00
1616;BME280;801;47.982;7.810;2022-10-22T07:35:46;98664.66;;;13.97;100.00
1616;BME280;801;47.982;7.810;2022-10-22T07:38:13;98668.75;;;13.89;100.00
1616;BME280;801;47.982;7.810;2022-10-22T07:40:41;98667.56;;;14.06;100.00
1616;BME280;801;47.982;7.810;2022-10-22T07:43:07;98668.03;;;14.13;100.00
1616;BME280;801;47.982;7.810;2022-10-22T07:45:34;98671.88;;;14.07;100.00
1616;BME280;801;47.982;7.810;2022-10-22T07:48:00;98673.56;;;13.98;100.00
1616;BME280;801;47.982;7.810;2022-10-22T07:50:27;98668.13;;;14.03;100.00
1616;BME280;801;47.982;7.810;2022-10-22T07:52:54;98671.31;;;14.10;100.00
1616;BME280;801;47.982;7.810;2022-10-22T07:55:20;98674.97;;;13.90;100.00
1616;BME280;801;47.982;7.810;2022-10-22T07:57:48;98670.88;;;13.98;100.00
1616;BME280;801;47.982;7.810;2022-10-22T08:00:15;98682.13;;;14.10;100.00
1616;BME280;801;47.982;7.810;2022-10-22T08:02:41;98685.88;;;14.14;100.00
1616;BME280;801;47.982;7.810;2022-10-22T08:05:08;98677.25;;;14.12;100.00
1616;BME280;801;47.982;7.810;2022-10-22T08:07:35;98678.22;;;14.26;100.00
1616;BME280;801;47.982;7.810;2022-10-22T08:10:02;98675.50;;;14.31;100.00
1616;BME280;801;47.982;7.810;2022-10-22T08:12:28;98674.91;;;14.35;100.00
1616;BME280;801;47.982;7.810;2022-10-22T08:14:56;98666.22;;;14.43;100.00
1616;BME280;801;47.982;7.810;2022-10-22T08:17:25;98674.97;;;14.29;100.00
1616;BME280;801;47.982;7.810;2022-10-22T08:19:51;98667.44;;;14.56;100.00
1616;BME280;801;47.982;7.810;2022-10-22T08:22:18;98676.38;;;14.51;100.00
1616;BME280;801;47.982;7.810;2022-10-22T08:24:44;98675.81;;;14.59;100.00
1616;BME280;801;47.982;7.810;2022-10-22T08:27:11;98675.25;;;14.62;100.00
1616;BME280;801;47.982;7.810;2022-10-22T08:29:37;98674.72;;;14.89;100.00
1616;BME280;801;47.982;7.810;2022-10-22T08:32:05;98669.19;;;15.00;100.00
1616;BME280;801;47.982;7.810;2022-10-22T08:34:32;98669.31;;;15.13;100.00
1616;BME280;801;47.982;7.810;2022-10-22T08:36:58;98673.16;;;15.31;100.00
1616;BME280;801;47.982;7.810;2022-10-22T08:39:25;98684.28;;;15.30;100.00
1616;BME280;801;47.982;7.810;2022-10-22T08:41:58;98660.84;;;15.63;100.00
1616;BME280;801;47.982;7.810;2022-10-22T08:44:50;98688.78;;;16.02;100.00
1616;BME280;801;47.982;7.810;2022-10-22T08:47:32;98682.84;;;16.18;100.00
1616;BME280;801;47.982;7.810;2022-10-22T08:50:08;98685.94;;;16.45;100.00
1616;BME280;801;47.982;7.810;2022-10-22T08:52:35;98693.72;;;16.51;100.00
1616;BME280;801;47.982;7.810;2022-10-22T08:55:11;98703.31;;;16.76;100.00
1616;BME280;801;47.982;7.810;2022-10-22T08:57:45;98705.22;;;16.95;100.00
1616;BME280;801;47.982;7.810;2022-10-22T09:00:18;98700.38;;;16.92;100.00
1616;BME280;801;47.982;7.810;2022-10-22T09:02:55;98708.44;;;16.97;100.00
1616;BME280;801;47.982;7.810;2022-10-22T09:05:39;98707.44;;;17.20;100.00
1616;BME280;801;47.982;7.810;2022-10-22T09:08:09;98717.28;;;17.16;100.00
1616;BME280;801;47.982;7.810;2022-10-22T09:10:39;98716.50;;;17.16;100.00
1616;BME280;801;47.982;7.810;2022-10-22T09:13:08;98722.75;;;17.44;100.00
1616;BME280;801;47.982;7.810;2022-10-22T09:15:35;98725.06;;;17.51;100.00
1616;BME280;801;47.982;7.810;2022-10-22T09:18:09;98727.06;;;17.45;100.00
1616;BME280;801;47.982;7.810;2022-10-22T09:20:44;98725.56;;;17.53;100.00
1616;BME280;801;47.982;7.810;2022-10-22T09:23:22;98727.44;;;17.52;100.00
1616;BME280;801;47.982;7.810;2022-10-22T09:25:51;98730.91;;;17.44;100.00
1616;BME280;801;47.982;7.810;2022-10-22T09:28:17;98727.16;;;17.68;100.00
1616;BME280;801;47.982;7.810;2022-10-22T09:30:44;98723.34;;;17.82;100.00
1616;BME280;801;47.982;7.810;2022-10-22T09:33:15;98733.97;;;17.93;100.00
1616;BME280;801;47.982;7.810;2022-10-22T09:35:46;98736.19;;;18.04;100.00
1616;BME280;801;47.982;7.810;2022-10-22T09:38:15;98731.50;;;18.19;100.00
1616;BME280;801;47.982;7.810;2022-10-22T09:40:43;98744.53;;;18.44;100.00
1616;BME280;801;47.982;7.810;2022-10-22T09:43:11;98743.97;;;18.34;100.00
1616;BME280;801;47.982;7.810;2022-10-22T09:45:38;98745.56;;;18.35;100.00
1616;BME280;801;47.982;7.810;2022-10-22T09:48:10;98743.28;;;18.51;100.00
1616;BME280;801;47.982;7.810;2022-10-22T09:50:42;98751.06;;;18.43;100.00
1616;BME280;801;47.982;7.810;2022-10-22T09:53:12;98750.13;;;18.84;100.00
1616;BME280;801;47.982;7.810;2022-10-22T09:55:40;98749.97;;;18.90;100.00
1616;BME280;801;47.982;7.810;2022-10-22T09:58:10;98746.59;;;19.15;100.00
1616;BME280;801;47.982;7.810;2022-10-22T10:00:37;98747.56;;;19.19;100.00
1616;BME280;801;47.982;7.810;2022-10-22T10:03:03;98751.34;;;19.41;100.00
1616;BME280;801;47.982;7.810;2022-10-22T10:05:32;98751.06;;;19.51;100.00
1616;BME280;801;47.982;7.810;2022-10-22T10:08:10;98754.16;;;19.58;100.00
1616;BME280;801;47.982;7.810;2022-10-22T10:10:45;98744.94;;;19.37;100.00
1616;BME280;801;47.982;7.810;2022-10-22T10:13:23;98754.84;;;19.73;100.00
1616;BME280;801;47.982;7.810;2022-10-22T10:15:55;98746.06;;;19.84;100.00
1616;BME280;801;47.982;7.810;2022-10-22T10:18:32;98749.28;;;19.86;100.00
1616;BME280;801;47.982;7.810;2022-10-22T10:21:08;98756.06;;;20.41;100.00
1616;BME280;801;47.982;7.810;2022-10-22T10:23:44;98751.91;;;20.26;100.00
1616;BME280;801;47.982;7.810;2022-10-22T10:26:16;98751.44;;;20.68;100.00
1616;BME280;801;47.982;7.810;2022-10-22T10:28:56;98757.19;;;20.40;100.00
1616;BME280;801;47.982;7.810;2022-10-22T10:31:36;98770.19;;;20.26;100.00
1616;BME280;801;47.982;7.810;2022-10-22T10:34:13;98760.88;;;20.09;100.00
1616;BME280;801;47.982;7.810;2022-10-22T10:36:50;98749.50;;;20.60;100.00
1616;BME280;801;47.982;7.810;2022-10-22T10:39:24;98753.56;;;21.18;100.00
1616;BME280;801;47.982;7.810;2022-10-22T10:42:02;98754.59;;;20.87;100.00
1616;BME280;801;47.982;7.810;2022-10-22T10:44:47;98750.72;;;21.06;100.00
1616;BME280;801;47.982;7.810;2022-10-22T10:47:31;98750.50;;;21.20;100.00
1616;BME280;801;47.982;7.810;2022-10-22T10:50:16;98750.06;;;21.09;100.00
1616;BME280;801;47.982;7.810;2022-10-22T10:52:49;98756.81;;;21.59;100.00
1616;BME280;801;47.982;7.810;2022-10-22T10:55:28;98753.56;;;21.65;100.00
1616;BME280;801;47.982;7.810;2022-10-22T10:58:02;98756.13;;;21.70;100.00
1616;BME280;801;47.982;7.810;2022-10-22T11:00:36;98759.13;;;21.77;100.00
1616;BME280;801;47.982;7.810;2022-10-22T11:03:34;98753.94;;;21.85;100.00
1616;BME280;801;47.982;7.810;2022-10-22T11:06:08;98752.09;;;21.97;100.00
1616;BME280;801;47.982;7.810;2022-10-22T11:08:37;98751.69;;;21.87;100.00
1616;BME280;801;47.982;7.810;2022-10-22T11:11:11;98742.41;;;22.00;100.00
1616;BME280;801;47.982;7.810;2022-10-22T11:13:44;98744.06;;;22.22;100.00
1616;BME280;801;47.982;7.810;2022-10-22T11:16:19;98737.41;;;22.65;100.00
1616;BME280;801;47.982;7.810;2022-10-22T11:18:52;98746.84;;;22.55;100.00
1616;BME280;801;47.982;7.810;2022-10-22T11:21:24;98741.53;;;22.38;100.00
1616;BME280;801;47.982;7.810;2022-10-22T11:23:55;98742.47;;;22.12;100.00
1616;BME280;801;47.982;7.810;2022-10-22T11:26:36;98748.56;;;23.39;100.00
1616;BME280;801;47.982;7.810;2022-10-22T11:29:10;98738.06;;;22.29;100.00
1616;BME280;801;47.982;7.810;2022-10-22T11:31:39;98740.78;;;22.29;100.00
1616;BME280;801;47.982;7.810;2022-10-22T11:34:13;98746.88;;;22.68;100.00
1616;BME280;801;47.982;7.810;2022-10-22T11:36:42;98742.41;;;23.79;100.00
1616;BME280;801;47.982;7.810;2022-10-22T11:39:28;98749.34;;;24.13;100.00
1616;BME280;801;47.982;7.810;2022-10-22T11:41:58;98746.50;;;22.90;100.00
1616;BME280;801;47.982;7.810;2022-10-22T11:44:27;98745.50;;;23.40;100.00
1616;BME280;801;47.982;7.810;2022-10-22T11:46:56;98745.59;;;22.53;100.00
1616;BME280;801;47.982;7.810;2022-10-22T11:49:26;98741.59;;;23.29;100.00
1616;BME280;801;47.982;7.810;2022-10-22T11:52:22;98733.09;;;22.76;100.00
1616;BME280;801;47.982;7.810;2022-10-22T11:54:53;98737.94;;;23.50;100.00
1616;BME280;801;47.982;7.810;2022-10-22T11:57:25;98731.78;;;23.53;100.00
1616;BME280;801;47.982;7.810;2022-10-22T11:59:56;98735.19;;;23.62;100.00
1616;BME280;801;47.982;7.810;2022-10-22T12:02:39;98738.84;;;23.41;100.00
1616;BME280;801;47.982;7.810;2022-10-22T12:05:34;98729.34;;;23.14;100.00
1616;BME280;801;47.982;7.810;2022-10-22T12:08:20;98725.47;;;23.28;100.00
1616;BME280;801;47.982;7.810;2022-10-22T12:10:55;98733.19;;;24.24;96.17
1616;BME280;801;47.982;7.810;2022-10-22T12:13:25;98716.69;;;23.71;100.00
1616;BME280;801;47.982;7.810;2022-10-22T12:15:56;98724.91;;;23.71;93.78
1616;BME280;801;47.982;7.810;2022-10-22T12:18:25;98735.88;;;23.59;96.39
1616;BME280;801;47.982;7.810;2022-10-22T12:20:53;98721.53;;;24.55;88.66
1616;BME280;801;47.982;7.810;2022-10-22T12:23:24;98727.94;;;25.03;87.27
1616;BME280;801;47.982;7.810;2022-10-22T12:25:52;98734.66;;;25.34;87.24
1616;BME280;801;47.982;7.810;2022-10-22T12:28:19;98723.41;;;24.39;90.01
1616;BME280;801;47.982;7.810;2022-10-22T12:30:47;98725.00;;;24.40;87.42
1616;BME280;801;47.982;7.810;2022-10-22T12:33:19;98730.34;;;24.61;88.70
1616;BME280;801;47.982;7.810;2022-10-22T12:35:46;98727.22;;;24.62;87.33
1616;BME280;801;47.982;7.810;2022-10-22T12:38:15;98724.13;;;24.64;85.97
1616;BME280;801;47.982;7.810;2022-10-22T12:40:42;98727.63;;;25.37;88.23
1616;BME280;801;47.982;7.810;2022-10-22T12:43:11;98728.22;;;24.98;81.29
1616;BME280;801;47.982;7.810;2022-10-22T12:45:38;98722.06;;;25.05;82.23
1616;BME280;801;47.982;7.810;2022-10-22T12:48:13;98718.47;;;25.48;87.35
1616;BME280;801;47.982;7.810;2022-10-22T12:50:42;98715.31;;;24.86;83.86
1616;BME280;801;47.982;7.810;2022-10-22T12:53:13;98715.25;;;25.15;76.41
1616;BME280;801;47.982;7.810;2022-10-22T12:55:40;98718.13;;;24.58;79.75
1616;BME280;801;47.982;7.810;2022-10-22T12:58:07;98712.97;;;25.48;78.69
1616;BME280;801;47.982;7.810;2022-10-22T13:00:34;98695.19;;;26.95;70.92
1616;BME280;801;47.982;7.810;2022-10-22T13:03:04;98700.81;;;26.79;68.53
1616;BME280;801;47.982;7.810;2022-10-22T13:05:33;98699.22;;;26.00;72.59
1616;BME280;801;47.982;7.810;2022-10-22T13:08:07;98699.81;;;25.58;71.32
1616;BME280;801;47.982;7.810;2022-10-22T13:10:35;98695.56;;;25.13;74.13
1616;BME280;801;47.982;7.810;2022-10-22T13:13:03;98693.63;;;24.97;72.48
1616;BME280;801;47.982;7.810;2022-10-22T13:15:34;98696.13;;;25.34;74.72
1616;BME280;801;47.982;7.810;2022-10-22T13:18:03;98697.50;;;25.60;69.39
1616;BME280;801;47.982;7.810;2022-10-22T13:20:30;98690.72;;;25.38;62.44
1616;BME280;801;47.982;7.810;2022-10-22T13:22:59;98692.78;;;25.92;66.00
1616;BME280;801;47.982;7.810;2022-10-22T13:25:30;98685.16;;;26.05;67.42
1616;BME280;801;47.982;7.810;2022-10-22T13:27:59;98683.00;;;25.43;68.46
1616;BME280;801;47.982;7.810;2022-10-22T13:30:28;98680.09;;;26.65;58.92
1616;BME280;801;47.982;7.810;2022-10-22T13:32:57;98687.59;;;27.11;57.32
1616;BME280;801;47.982;7.810;2022-10-22T13:35:27;98682.13;;;26.49;59.95
1616;BME280;801;47.982;7.810;2022-10-22T13:37:54;98688.22;;;26.00;69.38
1616;BME280;801;47.982;7.810;2022-10-22T13:40:21;98680.69;;;26.36;64.88
1616;BME280;801;47.982;7.810;2022-10-22T13:42:48;98682.16;;;26.10;55.02
1616;BME280;801;47.982;7.810;2022-10-22T13:45:15;98682.38;;;25.85;55.33
1616;BME280;801;47.982;7.810;2022-10-22T13:47:47;98679.19;;;25.83;53.07
1616;BME280;801;47.982;7.810;2022-10-22T13:50:15;98676.34;;;26.35;51.27
1616;BME280;801;47.982;7.810;2022-10-22T13:52:44;98681.81;;;25.96;50.02
1616;BME280;801;47.982;7.810;2022-10-22T13:55:14;98678.72;;;25.97;51.53
1616;BME280;801;47.982;7.810;2022-10-22T13:57:43;98675.03;;;26.09;52.45
1616;BME280;801;47.982;7.810;2022-10-22T14:00:12;98678.34;;;26.18;53.40
1616;BME280;801;47.982;7.810;2022-10-22T14:02:40;98679.38;;;25.91;55.84
1616;BME280;801;47.982;7.810;2022-10-22T14:05:07;98672.53;;;26.43;56.67
1616;BME280;801;47.982;7.810;2022-10-22T14:07:35;98681.75;;;25.57;58.03
1616;BME280;801;47.982;7.810;2022-10-22T14:10:05;98680.91;;;26.27;57.87
1616;BME280;801;47.982;7.810;2022-10-22T14:12:31;98679.81;;;26.32;57.13
1616;BME280;801;47.982;7.810;2022-10-22T14:14:59;98680.91;;;26.27;57.29
1616;BME280;801;47.982;7.810;2022-10-22T14:17:26;98680.75;;;26.20;58.38
1616;BME280;801;47.982;7.810;2022-10-22T14:19:53;98675.53;;;25.95;60.41
1616;BME280;801;47.982;7.810;2022-10-22T14:22:20;98674.13;;;26.63;57.87
1616;BME280;801;47.982;7.810;2022-10-22T14:24:48;98677.78;;;26.48;57.70
1616;BME280;801;47.982;7.810;2022-10-22T14:27:16;98680.13;;;27.11;56.13
1616;BME280;801;47.982;7.810;2022-10-22T14:29:42;98665.25;;;26.31;56.22
1616;BME280;801;47.982;7.810;2022-10-22T14:32:14;98674.81;;;26.57;59.02
1616;BME280;801;47.982;7.810;2022-10-22T14:34:41;98668.50;;;27.22;56.06
1616;BME280;801;47.982;7.810;2022-10-22T14:37:18;98667.50;;;26.06;57.54
1616;BME280;801;47.982;7.810;2022-10-22T14:39:45;98671.41;;;26.24;56.61
1616;BME280;801;47.982;7.810;2022-10-22T14:42:17;98667.63;;;27.18;57.07
1616;BME280;801;47.982;7.810;2022-10-22T14:44:43;98665.97;;;26.28;56.58
1616;BME280;801;47.982;7.810;2022-10-22T14:47:11;98656.03;;;26.85;57.84
1616;BME280;801;47.982;7.810;2022-10-22T14:49:38;98661.75;;;26.54;56.61
1616;BME280;801;47.982;7.810;2022-10-22T14:52:05;98663.38;;;26.16;55.94
1616;BME280;801;47.982;7.810;2022-10-22T14:54:31;98661.78;;;26.15;55.26
1616;BME280;801;47.982;7.810;2022-10-22T14:56:59;98658.84;;;26.89;55.30
1616;BME280;801;47.982;7.810;2022-10-22T14:59:26;98654.56;;;26.91;48.24
1616;BME280;801;47.982;7.810;2022-10-22T15:01:52;98652.06;;;26.83;50.15
1616;BME280;801;47.982;7.810;2022-10-22T15:04:20;98653.66;;;26.84;48.40
1616;BME280;801;47.982;7.810;2022-10-22T15:06:47;98647.25;;;27.26;49.07
1616;BME280;801;47.982;7.810;2022-10-22T15:09:14;98644.63;;;27.60;48.82
1616;BME280;801;47.982;7.810;2022-10-22T15:11:40;98653.31;;;27.62;49.65
1616;BME280;801;47.982;7.810;2022-10-22T15:14:07;98654.91;;;27.89;49.43
1616;BME280;801;47.982;7.810;2022-10-22T15:16:33;98654.72;;;28.05;48.44
1616;BME280;801;47.982;7.810;2022-10-22T15:19:00;98651.63;;;27.84;48.32
1616;BME280;801;47.982;7.810;2022-10-22T15:21:28;98654.88;;;27.09;50.43
1616;BME280;801;47.982;7.810;2022-10-22T15:23:54;98656.19;;;27.19;51.38
1616;BME280;801;47.982;7.810;2022-10-22T15:26:21;98664.47;;;27.19;54.36
1616;BME280;801;47.982;7.810;2022-10-22T15:28:48;98669.66;;;27.47;59.16
1616;BME280;801;47.982;7.810;2022-10-22T15:31:14;98668.38;;;27.68;61.47
1616;BME280;801;47.982;7.810;2022-10-22T15:33:42;98671.06;;;27.61;63.28
1616;BME280;801;47.982;7.810;2022-10-22T15:36:09;98668.09;;;27.73;65.63
1616;BME280;801;47.982;7.810;2022-10-22T15:38:38;98666.13;;;27.47;65.77
1616;BME280;801;47.982;7.810;2022-10-22T15:41:06;98665.88;;;27.32;65.16
1616;BME280;801;47.982;7.810;2022-10-22T15:43:34;98667.00;;;27.28;67.81
1616;BME280;801;47.982;7.810;2022-10-22T15:46:09;98664.31;;;27.08;67.08
1616;BME280;801;47.982;7.810;2022-10-22T15:48:36;98664.31;;;27.08;69.78
1616;BME280;801;47.982;7.810;2022-10-22T15:51:07;98670.88;;;27.00;69.86
1616;BME280;801;47.982;7.810;2022-10-22T15:53:34;98671.69;;;26.58;70.92
1616;BME280;801;47.982;7.810;2022-10-22T15:56:02;98679.66;;;26.24;72.57
1616;BME280;801;47.982;7.810;2022-10-22T15:58:29;98676.66;;;25.43;77.75
1616;BME280;801;47.982;7.810;2022-10-22T16:01:03;98674.09;;;25.18;82.00
1616;BME280;801;47.982;7.810;2022-10-22T16:03:29;98675.72;;;25.03;82.85
1616;BME280;801;47.982;7.810;2022-10-22T16:05:56;98675.91;;;24.22;88.01